Time;durP1;ratioP1;P1;durP2;ratioP2;P2;SDS_P1;SDS_P2;PMS_P1;PMS_P2;Temp;Humidity;BMP_temperature;BMP_pressure;BME280_temperature;BME280_humidity;BME280_pressure;Samples;Min_cycle;Max_cycle;Signal;HPM_P1;HPM_P2
2023/01/12 00:02:38;;;;;;;12.10;8.50;;;;;;;3.45;100.00;99253.04;441850;1252;147173;-63
2023/01/12 00:12:44;;;;;;;13.70;9.20;;;;;;;3.50;100.00;99256.48;434133;1254;146799;-63
2023/01/12 00:22:50;;;;;;;11.70;9.50;;;;;;;3.52;100.00;99261.05;436815;1254;145706;-62
2023/01/12 00:32:56;;;;;;;16.00;9.50;;;;;;;3.58;100.00;99267.59;435149;1256;143535;-62
2023/01/12 00:53:28;;;;;;;11.40;9.60;;;;;;;3.68;100.00;99278.61;440512;1256;146730;-62
2023/01/12 01:03:34;;;;;;;13.30;10.30;;;;;;;3.71;100.00;99288.18;434379;1255;144525;-62
2023/01/12 01:13:42;;;;;;;15.60;10.80;;;;;;;3.73;100.00;99288.09;433951;1257;143749;-62
2023/01/12 01:23:48;;;;;;;15.40;10.60;;;;;;;3.73;100.00;99293.46;433491;1257;145810;-62
2023/01/12 01:33:54;;;;;;;14.30;11.90;;;;;;;3.76;100.00;99298.70;437849;1251;149300;-63
2023/01/12 01:44:02;;;;;;;13.60;10.30;;;;;;;3.81;100.00;99303.70;438674;1254;143133;-63
2023/01/12 01:54:08;;;;;;;15.10;11.40;;;;;;;3.89;100.00;99318.27;436094;1256;142579;-62
2023/01/12 02:04:15;;;;;;;16.30;11.10;;;;;;;3.95;100.00;99329.14;437520;1251;143314;-62
2023/01/12 02:25:09;;;;;;;16.00;12.10;;;;;;;4.04;100.00;99334.30;439333;1253;147576;-62
2023/01/12 02:35:24;;;;;;;13.40;11.30;;;;;;;4.09;100.00;99341.36;438146;1251;196126;-62
2023/01/12 02:45:41;;;;;;;17.20;12.00;;;;;;;4.15;100.00;99345.10;437880;1253;143103;-62
2023/01/12 02:55:49;;;;;;;19.10;13.30;;;;;;;4.19;100.00;99348.21;441308;1251;143337;-61
2023/01/12 03:05:58;;;;;;;19.60;14.50;;;;;;;4.24;100.00;99343.89;434455;1251;142399;-63
2023/01/12 03:16:07;;;;;;;20.10;14.70;;;;;;;4.26;100.00;99349.33;435151;1252;144429;-63
2023/01/12 03:26:17;;;;;;;18.60;15.30;;;;;;;4.29;100.00;99343.48;433858;1256;142990;-63
2023/01/12 03:36:29;;;;;;;20.70;15.70;;;;;;;4.32;100.00;99343.55;432931;1255;147528;-63
2023/01/12 03:46:43;;;;;;;23.10;15.30;;;;;;;4.33;100.00;99356.14;442669;1253;142638;-63
2023/01/12 03:56:53;;;;;;;21.20;15.70;;;;;;;4.38;100.00;99360.77;435125;1257;145791;-62
2023/01/12 04:06:59;;;;;;;20.90;16.20;;;;;;;4.44;100.00;99356.38;435255;1251;146902;-63
2023/01/12 04:17:06;;;;;;;22.90;17.10;;;;;;;4.49;100.00;99370.20;439682;1250;147312;-63
2023/01/12 04:27:12;;;;;;;24.90;17.20;;;;;;;4.54;100.00;99376.59;440741;1251;142782;-63
2023/01/12 04:37:18;;;;;;;25.80;16.00;;;;;;;4.57;100.00;99381.99;443265;1251;208876;-62
2023/01/12 04:47:24;;;;;;;23.80;17.30;;;;;;;4.61;100.00;99384.77;436964;1253;146864;-61
2023/01/12 04:57:30;;;;;;;18.80;15.40;;;;;;;4.65;100.00;99398.49;439037;1252;144007;-63
2023/01/12 05:07:36;;;;;;;22.30;17.10;;;;;;;4.68;100.00;99400.26;434450;1251;142915;-61
2023/01/12 05:17:42;;;;;;;20.60;15.40;;;;;;;4.70;100.00;99394.31;440902;1252;147364;-62
2023/01/12 05:27:48;;;;;;;20.70;16.50;;;;;;;4.70;100.00;99400.35;436589;1251;142521;-62
2023/01/12 05:37:56;;;;;;;22.30;17.70;;;;;;;4.70;100.00;99405.73;438929;1250;142340;-61
2023/01/12 05:48:01;;;;;;;30.00;22.70;;;;;;;4.72;100.00;99404.45;434002;1254;141905;-62
2023/01/12 05:58:08;;;;;;;17.80;15.10;;;;;;;4.70;100.00;99405.40;445038;1252;202457;-62
2023/01/12 06:08:13;;;;;;;22.10;14.90;;;;;;;4.69;100.00;99409.08;434737;1256;142049;-63
2023/01/12 06:18:21;;;;;;;19.70;14.60;;;;;;;4.63;100.00;99414.86;443039;1252;142157;-63
2023/01/12 06:28:27;;;;;;;18.00;13.40;;;;;;;4.50;100.00;99425.99;440604;1252;145930;-63
2023/01/12 06:38:35;;;;;;;19.30;14.40;;;;;;;4.27;100.00;99428.46;434226;1255;142491;-62
2023/01/12 06:48:42;;;;;;;18.60;13.80;;;;;;;4.08;100.00;99444.66;449258;1252;142630;-62
2023/01/12 06:58:47;;;;;;;22.20;15.90;;;;;;;4.05;100.00;99443.21;449992;1252;142975;-62
2023/01/12 07:08:53;;;;;;;32.50;18.90;;;;;;;3.96;100.00;99444.73;450092;1252;143909;-64
2023/01/12 07:18:59;;;;;;;23.60;18.10;;;;;;;3.78;100.00;99449.94;449456;1252;143594;-62
2023/01/12 07:29:05;;;;;;;25.10;15.20;;;;;;;3.69;100.00;99453.60;450183;1252;142896;-62
2023/01/12 07:39:11;;;;;;;22.50;17.20;;;;;;;3.64;100.00;99460.88;450233;1252;142126;-62
2023/01/12 07:49:18;;;;;;;21.20;14.50;;;;;;;3.86;100.00;99453.96;449774;1252;143093;-64
2023/01/12 07:59:23;;;;;;;17.60;15.00;;;;;;;5.21;100.00;99446.55;450221;1252;142605;-64
2023/01/12 08:09:29;;;;;;;18.40;14.90;;;;;;;6.91;100.00;99446.69;449437;1252;142615;-62
2023/01/12 08:19:40;;;;;;;16.40;10.00;;;;;;;7.66;100.00;99449.30;450282;1252;141630;-62
2023/01/12 08:29:49;;;;;;;14.30;10.60;;;;;;;7.92;100.00;99452.25;450270;1252;142729;-62
2023/01/12 08:39:55;;;;;;;12.60;10.40;;;;;;;8.49;100.00;99461.14;446239;1252;142318;-62
2023/01/12 08:50:01;;;;;;;12.70;8.30;;;;;;;9.55;100.00;99468.70;450226;1251;143545;-62
2023/01/12 09:00:09;;;;;;;9.70;8.10;;;;;;;13.24;98.54;99463.85;450320;1251;142362;-62
2023/01/12 09:10:14;;;;;;;;;;;;;;;15.77;92.71;99466.10;449704;1251;142945;-62
2023/01/12 09:20:21;;;;;;;8.70;6.30;;;;;;;17.40;86.98;99445.80;450601;1252;128980;-62
2023/01/12 09:30:26;;;;;;;8.20;6.30;;;;;;;18.40;82.15;99442.23;449589;1252;145971;-65
2023/01/12 09:40:34;;;;;;;6.50;5.20;;;;;;;18.33;78.31;99435.14;446272;1252;141125;-63
2023/01/12 09:50:40;;;;;;;;;;;;;;;16.33;76.65;99416.20;450448;1252;141930;-63
2023/01/12 10:00:51;;;;;;;8.90;5.60;;;;;;;12.85;77.91;99404.00;449930;1252;130457;-65
2023/01/12 10:11:06;;;;;;;5.70;4.80;;;;;;;10.88;79.13;99398.04;450411;1252;141709;-62
2023/01/12 10:21:12;;;;;;;6.10;4.80;;;;;;;9.48;80.79;99377.76;447813;1252;142324;-61
2023/01/12 10:31:22;;;;;;;10.00;5.70;;;;;;;8.51;81.80;99365.60;445181;1252;208164;-64
2023/01/12 10:41:29;;;;;;;9.40;5.90;;;;;;;7.76;83.38;99370.35;450195;1252;143234;-63
2023/01/12 10:51:48;;;;;;;7.10;5.10;;;;;;;7.33;84.11;99366.60;446249;1252;142991;-62
2023/01/12 11:02:12;;;;;;;8.90;5.30;;;;;;;6.96;85.24;99361.44;450439;1252;142474;-62
2023/01/12 11:12:25;;;;;;;7.40;5.70;;;;;;;6.89;86.14;99347.89;449592;1252;163443;-61
2023/01/12 11:22:37;;;;;;;5.70;4.00;;;;;;;6.89;86.37;99333.96;450377;1252;141369;-62
2023/01/12 11:32:48;;;;;;;8.20;5.70;;;;;;;6.87;86.45;99327.42;449823;1252;144881;-62
2023/01/12 11:53:26;;;;;;;6.40;4.20;;;;;;;6.95;86.80;99293.10;450511;1252;142555;-63
2023/01/12 12:03:53;;;;;;;6.30;3.90;;;;;;;6.93;86.89;99289.38;449629;1252;141428;-63
2023/01/12 12:14:12;;;;;;;8.90;5.70;;;;;;;6.97;87.13;99278.71;450228;1255;141651;-63
2023/01/12 12:24:34;;;;;;;6.70;3.80;;;;;;;6.97;86.82;99268.27;449532;1252;162569;-63
2023/01/12 12:35:13;;;;;;;8.10;6.30;;;;;;;6.97;86.87;99265.65;450193;1252;142568;-63
2023/01/12 12:45:29;;;;;;;5.20;3.20;;;;;;;7.00;86.65;99267.60;449257;1253;165958;-63
2023/01/12 12:55:37;;;;;;;6.60;3.40;;;;;;;7.02;86.47;99247.83;450149;1252;145841;-63
2023/01/12 13:05:43;;;;;;;;;;;;;;;6.98;86.15;99234.94;450124;1252;145372;-62
2023/01/12 13:15:49;;;;;;;6.70;2.90;;;;;;;6.92;85.94;99231.28;449831;1252;128983;-63
2023/01/12 13:25:57;;;;;;;5.30;3.00;;;;;;;6.90;86.04;99222.52;450319;1252;142388;-62
2023/01/12 13:36:07;;;;;;;7.20;3.60;;;;;;;6.86;85.89;99213.36;447385;1252;142474;-63
2023/01/12 13:46:17;;;;;;;6.80;4.10;;;;;;;6.79;85.95;99209.92;449746;1252;208239;-63
2023/01/12 13:56:23;;;;;;;5.80;3.80;;;;;;;6.74;85.89;99217.14;449455;1254;142151;-63
2023/01/12 14:06:40;;;;;;;7.30;3.90;;;;;;;6.68;85.96;99208.04;443293;1253;141866;-62
2023/01/12 14:27:27;;;;;;;9.90;4.70;;;;;;;6.35;86.01;99203.73;450457;1252;141702;-63
2023/01/12 14:37:35;;;;;;;9.00;4.30;;;;;;;6.09;86.33;99203.65;446587;1252;210042;-63
2023/01/12 14:47:41;;;;;;;9.10;3.60;;;;;;;5.84;86.57;99203.16;450315;1252;141826;-63
2023/01/12 14:57:53;;;;;;;9.10;6.30;;;;;;;5.58;87.00;99187.05;449657;1252;141625;-63
2023/01/12 15:08:00;;;;;;;10.60;6.10;;;;;;;5.33;87.47;99189.84;450409;1252;143238;-62
2023/01/12 15:28:40;;;;;;;8.10;4.80;;;;;;;5.10;88.50;99183.65;443595;1252;207800;-63
2023/01/12 15:38:46;;;;;;;11.20;5.60;;;;;;;5.10;88.65;99182.44;433697;1255;141776;-61
2023/01/12 15:48:53;;;;;;;9.50;5.70;;;;;;;4.98;88.77;99179.67;438932;1256;141630;-62
2023/01/12 15:58:58;;;;;;;7.70;5.40;;;;;;;4.85;89.01;99175.77;435418;1256;196258;-61
2023/01/12 16:09:05;;;;;;;16.20;6.20;;;;;;;4.67;89.26;99167.94;444254;1252;144875;-63
2023/01/12 16:19:19;;;;;;;12.60;6.90;;;;;;;4.56;89.68;99166.92;449351;1252;188220;-62
2023/01/12 16:29:25;;;;;;;16.10;8.50;;;;;;;4.49;90.20;99154.74;449290;1252;142287;-62
2023/01/12 16:39:31;;;;;;;11.50;6.40;;;;;;;4.43;90.52;99141.48;449397;1255;144745;-63
2023/01/12 16:49:37;;;;;;;17.20;7.30;;;;;;;4.46;90.77;99137.54;450092;1252;142326;-61
2023/01/12 16:59:43;;;;;;;12.80;7.00;;;;;;;4.46;90.95;99128.89;450153;1251;142229;-62
2023/01/12 17:09:50;;;;;;;9.90;6.10;;;;;;;4.35;91.00;99129.70;449112;1252;143439;-63
2023/01/12 17:19:56;;;;;;;11.30;6.00;;;;;;;4.26;91.25;99126.52;449735;1253;141192;-62
2023/01/12 17:30:02;;;;;;;11.90;7.00;;;;;;;4.25;91.75;99122.73;440531;1254;141939;-62
2023/01/12 17:40:10;;;;;;;16.40;8.50;;;;;;;4.49;91.86;99117.33;442972;1253;142983;-62
2023/01/12 17:50:17;;;;;;;9.40;6.80;;;;;;;4.68;91.77;99111.55;449750;1255;143843;-62
2023/01/12 18:00:24;;;;;;;11.40;6.40;;;;;;;4.87;91.71;99110.65;449136;1254;144654;-62
2023/01/12 18:10:30;;;;;;;12.00;6.80;;;;;;;5.01;91.54;99098.38;449877;1254;143265;-62
2023/01/12 18:20:36;;;;;;;11.10;6.80;;;;;;;5.11;91.41;99098.58;433657;1256;142674;-62
2023/01/12 18:30:42;;;;;;;14.10;8.00;;;;;;;5.14;91.33;99094.27;443506;1256;142839;-61
2023/01/12 18:42:48;;;;;;;14.70;6.90;;;;;;;5.18;91.13;99084.02;450207;1254;142445;-62
2023/01/12 19:01:38;;;;;;;12.80;6.60;;;;;;;5.18;90.95;99068.21;443478;1256;148049;-62
2023/01/12 19:11:44;;;;;;;17.30;10.50;;;;;;;5.16;90.79;99059.96;436866;1254;143304;-63
2023/01/12 19:32:14;;;;;;;12.90;7.40;;;;;;;5.24;90.74;99069.66;450209;1253;142234;-62
2023/01/12 19:52:44;;;;;;;14.30;7.90;;;;;;;5.26;90.77;99048.05;443858;1254;143519;-63
2023/01/12 20:02:50;;;;;;;15.60;6.80;;;;;;;5.29;90.72;99055.17;447522;1251;142690;-63
2023/01/12 20:12:56;;;;;;;11.80;5.30;;;;;;;5.27;90.82;99049.20;449171;1251;143105;-63
2023/01/12 20:23:02;;;;;;;13.80;7.00;;;;;;;5.36;90.85;99053.29;450005;1252;142913;-63
2023/01/12 20:33:08;;;;;;;10.80;5.90;;;;;;;5.42;90.78;99048.29;446685;1253;142501;-63
2023/01/12 20:43:15;;;;;;;8.70;5.40;;;;;;;5.46;90.56;99045.96;443746;1254;210075;-61
2023/01/12 20:53:22;;;;;;;10.60;5.90;;;;;;;5.43;90.46;99046.15;433579;1256;146755;-63
2023/01/12 21:03:27;;;;;;;;;;;;;;;5.36;90.79;99052.44;449305;1252;142801;-62
2023/01/12 21:13:34;;;;;;;12.20;5.80;;;;;;;5.31;90.79;99049.54;450305;1253;129163;-62
2023/01/12 21:23:40;;;;;;;10.40;5.90;;;;;;;5.35;91.06;99049.48;449955;1251;142730;-63
2023/01/12 21:33:46;;;;;;;8.30;5.10;;;;;;;5.33;90.95;99046.65;440905;1254;140995;-61
2023/01/12 21:43:53;;;;;;;8.90;5.00;;;;;;;5.37;91.37;99036.38;432687;1253;199595;-63
2023/01/12 21:53:59;;;;;;;12.20;5.20;;;;;;;5.40;91.46;99026.70;449655;1253;142156;-61
2023/01/12 22:04:05;;;;;;;11.50;6.30;;;;;;;5.41;91.52;99020.02;438677;1252;141883;-61
2023/01/12 22:14:11;;;;;;;9.80;5.90;;;;;;;5.46;91.61;99021.66;449931;1252;141200;-63
2023/01/12 22:24:17;;;;;;;11.30;6.30;;;;;;;5.49;91.66;99016.86;448232;1252;152355;-62
2023/01/12 22:34:23;;;;;;;8.00;5.80;;;;;;;5.52;92.08;99004.70;435020;1252;141922;-62
2023/01/12 22:44:29;;;;;;;7.50;4.80;;;;;;;5.47;92.24;99005.63;434747;1251;141587;-62
2023/01/12 22:54:37;;;;;;;11.50;5.60;;;;;;;5.45;92.14;99000.05;448209;1251;141490;-63
2023/01/12 23:04:43;;;;;;;8.10;5.60;;;;;;;5.43;92.37;98997.20;447057;1252;143861;-63
2023/01/12 23:14:49;;;;;;;9.70;6.00;;;;;;;5.40;93.11;98995.63;450033;1251;142787;-62
2023/01/12 23:24:54;;;;;;;7.10;5.00;;;;;;;5.32;93.57;98995.13;432929;1253;143321;-61
2023/01/12 23:35:00;;;;;;;7.20;4.70;;;;;;;5.30;93.65;98993.87;444870;1252;144237;-62
2023/01/12 23:45:07;;;;;;;9.20;6.30;;;;;;;5.26;94.00;98995.14;438843;1252;146378;-61
2023/01/12 23:55:14;;;;;;;9.90;7.10;;;;;;;5.16;94.24;98998.20;434256;1252;208967;-62
